Time;durP1;ratioP1;P1;durP2;ratioP2;P2;SDS_P1;SDS_P2;PMS_P1;PMS_P2;Temp;Humidity;BMP_temperature;BMP_pressure;BME280_temperature;BME280_humidity;BME280_pressure;Samples;Min_cycle;Max_cycle;Signal;HPM_P1;HPM_P2
2022/11/26 00:00:24;;;;;;;23.60;4.70;;;6.20;99.90;;;4.97;100.00;98270.50;5052910;28;20485;-74
2022/11/26 00:02:51;;;;;;;22.83;5.38;;;6.10;99.90;;;4.95;100.00;98285.66;5069896;28;20403;-73
2022/11/26 00:05:18;;;;;;;23.90;4.97;;;6.10;99.90;;;4.90;100.00;98285.41;5070784;28;20406;-73
2022/11/26 00:07:51;;;;;;;34.58;5.28;;;6.00;99.90;;;4.81;100.00;98275.28;5070560;28;20404;-73
2022/11/26 00:10:22;;;;;;;19.23;4.28;;;5.90;99.90;;;4.74;100.00;98284.88;5052628;28;20852;-74
2022/11/26 00:12:48;;;;;;;19.20;4.47;;;5.90;99.90;;;4.65;100.00;98274.56;5069836;28;20399;-74
2022/11/26 00:15:19;;;;;;;23.77;4.70;;;5.80;99.90;;;4.59;100.00;98277.94;5070679;28;20400;-75
2022/11/26 00:17:45;;;;;;;15.60;4.68;;;5.80;99.90;;;4.53;100.00;98291.00;5070355;28;20954;-75
2022/11/26 00:20:11;;;;;;;22.70;4.60;;;5.70;99.90;;;4.49;100.00;98293.19;5070593;28;20445;-75
2022/11/26 00:22:41;;;;;;;19.45;4.75;;;5.70;99.90;;;4.48;100.00;98290.75;5070145;28;20987;-74
2022/11/26 00:25:15;;;;;;;28.05;5.45;;;5.70;99.90;;;4.52;100.00;98297.22;5070111;28;20400;-75
2022/11/26 00:27:42;;;;;;;24.45;5.72;;;5.70;99.90;;;4.53;100.00;98294.44;5070389;28;20852;-75
2022/11/26 00:30:21;;;;;;;21.00;5.28;;;5.60;99.90;;;4.59;100.00;98296.28;5069328;28;20898;-74
2022/11/26 00:32:47;;;;;;;23.52;5.10;;;5.70;99.90;;;4.65;100.00;98303.41;5069285;28;20476;-74
2022/11/26 00:35:14;;;;;;;30.05;5.00;;;5.80;99.90;;;4.86;100.00;98301.72;5052181;28;20959;-74
2022/11/26 00:37:44;;;;;;;23.98;4.50;;;5.90;99.90;;;5.05;100.00;98312.34;5070270;28;20517;-74
2022/11/26 00:40:21;;;;;;;17.77;4.70;;;6.10;99.90;;;5.09;100.00;98310.16;5070090;28;20495;-74
2022/11/26 00:42:49;;;;;;;23.85;4.57;;;6.20;99.90;;;5.09;100.00;98314.59;5069055;28;20419;-74
2022/11/26 00:45:18;;;;;;;27.15;5.10;;;6.20;99.90;;;5.13;100.00;98313.19;5070295;28;20514;-74
2022/11/26 00:47:44;;;;;;;20.67;4.35;;;6.20;99.90;;;5.08;100.00;98308.53;5070001;28;20406;-74
2022/11/26 00:50:15;;;;;;;23.67;4.22;;;6.20;99.90;;;5.06;100.00;98321.03;5069767;28;20412;-74
2022/11/26 00:52:42;;;;;;;20.73;4.57;;;6.20;99.90;;;5.21;100.00;98320.91;5069300;28;20556;-73
2022/11/26 00:55:22;;;;;;;21.80;4.23;;;6.30;99.90;;;5.30;100.00;98327.63;5069690;28;20409;-73
2022/11/26 00:57:50;;;;;;;15.15;4.25;;;6.40;99.90;;;5.26;100.00;98332.44;5069973;28;20444;-74
2022/11/26 01:00:18;;;;;;;12.02;3.85;;;6.30;99.90;;;5.33;100.00;98332.50;5069867;28;20479;-73
2022/11/26 01:02:45;;;;;;;24.63;4.70;;;6.40;99.90;;;5.41;100.00;98330.50;5069105;28;20888;-73
2022/11/26 01:05:12;;;;;;;19.02;3.92;;;6.50;99.90;;;5.39;100.00;98331.72;5068600;28;20925;-74
2022/11/26 01:07:38;;;;;;;17.88;3.80;;;6.40;99.90;;;5.44;100.00;98335.38;5069813;28;20399;-73
2022/11/26 01:10:13;;;;;;;15.17;3.57;;;6.50;99.90;;;5.44;100.00;98345.06;5069534;28;20419;-74
2022/11/26 01:12:39;;;;;;;20.65;4.10;;;6.50;99.90;;;5.47;100.00;98357.00;5069348;28;20886;-73
2022/11/26 01:15:07;;;;;;;16.45;4.18;;;6.50;99.90;;;5.45;100.00;98357.19;5051327;28;20411;-73
2022/11/26 01:17:33;;;;;;;22.40;4.37;;;6.50;99.90;;;5.34;100.00;98360.34;5069743;28;20966;-74
2022/11/26 01:19:59;;;;;;;16.52;3.88;;;6.40;99.90;;;5.36;100.00;98367.03;5069500;28;20407;-73
2022/11/26 01:22:25;;;;;;;15.00;3.78;;;6.40;99.90;;;5.37;100.00;98367.84;5069357;28;20404;-73
2022/11/26 01:24:51;;;;;;;17.63;4.30;;;6.50;99.90;;;5.26;100.00;98371.03;5068735;28;20498;-75
2022/11/26 01:27:19;;;;;;;22.35;4.38;;;6.40;99.90;;;5.28;100.00;98367.19;5069722;28;20400;-73
2022/11/26 01:29:45;;;;;;;23.63;4.13;;;6.40;99.90;;;5.23;100.00;98366.16;5069568;28;20431;-74
2022/11/26 01:32:13;;;;;;;16.98;4.05;;;6.30;99.90;;;5.28;100.00;98369.00;5069389;28;20407;-72
2022/11/26 01:34:38;;;;;;;16.90;4.15;;;6.30;99.90;;;5.26;100.00;98368.41;5068437;28;20448;-75
2022/11/26 01:37:12;;;;;;;17.92;4.10;;;6.40;99.90;;;5.26;100.00;98368.41;5069388;28;20406;-74
2022/11/26 01:39:38;;;;;;;20.27;4.53;;;6.30;99.90;;;5.24;100.00;98378.28;5069521;28;20449;-75
2022/11/26 01:42:15;;;;;;;18.37;4.30;;;6.30;99.90;;;5.20;100.00;98390.13;5071077;28;20540;-73
2022/11/26 01:44:40;;;;;;;23.20;4.78;;;6.30;99.90;;;5.18;100.00;98392.97;5054461;28;20531;-72
2022/11/26 01:47:21;;;;;;;24.10;5.13;;;6.30;99.90;;;5.17;100.00;98393.16;5073407;28;20395;-75
2022/11/26 01:50:57;;;;;;;22.77;4.72;;;6.30;99.90;;;5.20;100.00;98393.56;5073309;28;20945;-74
2022/11/26 01:53:37;;;;;;;16.88;4.30;;;6.30;99.90;;;5.20;100.00;98396.19;5067242;28;20577;-74
2022/11/26 01:56:12;;;;;;;16.58;4.05;;;6.30;99.90;;;5.19;100.00;98399.81;5073280;28;20463;-75
2022/11/26 01:58:43;;;;;;;22.77;4.68;;;6.30;99.90;;;5.20;100.00;98406.69;5073169;28;20535;-74
2022/11/26 02:01:09;;;;;;;16.70;4.68;;;6.30;99.90;;;5.18;100.00;98407.91;5073082;28;20489;-74
2022/11/26 02:03:46;;;;;;;15.40;4.85;;;6.30;99.90;;;5.19;100.00;98406.91;5072120;28;20407;-74
2022/11/26 02:06:19;;;;;;;21.73;4.40;;;6.30;99.90;;;5.17;100.00;98401.03;5073004;28;20940;-74
2022/11/26 02:08:45;;;;;;;18.83;4.10;;;6.30;99.90;;;5.19;100.00;98405.06;5072908;28;20415;-74
2022/11/26 02:11:17;;;;;;;22.52;4.68;;;6.30;99.90;;;5.17;100.00;98401.03;5072896;28;20403;-74
2022/11/26 02:13:45;;;;;;;21.55;4.60;;;6.30;99.90;;;5.17;100.00;98407.09;5071919;28;20513;-74
2022/11/26 02:16:23;;;;;;;14.52;4.03;;;6.30;99.90;;;5.24;100.00;98417.66;5072746;28;20824;-74
2022/11/26 02:19:06;;;;;;;16.83;4.43;;;6.30;99.90;;;5.14;100.00;98415.34;5072743;28;20527;-73
2022/11/26 02:21:35;;;;;;;17.88;4.60;;;6.20;99.90;;;5.06;100.00;98405.00;5072629;28;20463;-74
2022/11/26 02:24:32;;;;;;;35.88;5.82;;;6.20;99.90;;;5.07;100.00;98414.50;5071849;28;20443;-74
2022/11/26 02:27:49;;;;;;;23.60;5.18;;;6.20;99.90;;;5.05;100.00;98421.72;5072680;28;20405;-74
2022/11/26 02:30:17;;;;;;;16.40;5.00;;;6.20;99.90;;;5.04;100.00;98425.34;5072521;28;20431;-74
2022/11/26 02:32:57;;;;;;;28.40;6.00;;;6.10;99.90;;;4.97;100.00;98427.94;5071739;28;20461;-74
2022/11/26 02:35:29;;;;;;;26.92;5.82;;;6.10;99.90;;;4.95;100.00;98435.19;5072591;28;20953;-74
2022/11/26 02:38:01;;;;;;;23.77;6.00;;;6.10;99.90;;;4.91;100.00;98433.13;5072488;28;20458;-74
2022/11/26 02:40:27;;;;;;;15.00;5.20;;;6.00;99.90;;;4.97;100.00;98434.97;5072241;28;20473;-74
2022/11/26 02:42:53;;;;;;;34.40;5.20;;;6.10;99.90;;;4.93;100.00;98442.44;5071244;28;20414;-74
2022/11/26 02:45:25;;;;;;;18.17;4.80;;;6.00;99.90;;;4.96;100.00;98442.03;5072392;28;20496;-74
2022/11/26 02:47:55;;;;;;;27.35;5.20;;;6.10;99.90;;;4.96;100.00;98447.28;5072449;28;20453;-74
2022/11/26 02:50:26;;;;;;;24.23;6.00;;;6.10;99.90;;;4.94;100.00;98453.75;5072218;28;20474;-74
2022/11/26 02:52:56;;;;;;;21.23;5.10;;;6.10;99.90;;;4.94;100.00;98454.56;5070502;28;20448;-74
2022/11/26 02:55:27;;;;;;;23.58;5.50;;;6.10;99.90;;;4.97;100.00;98458.59;5072174;28;20444;-73
2022/11/26 02:57:53;;;;;;;26.63;5.35;;;6.10;99.90;;;4.98;100.00;98468.09;5072098;28;20487;-74
2022/11/26 03:00:21;;;;;;;15.25;5.18;;;6.10;99.90;;;5.01;100.00;98470.34;5072115;28;20390;-74
2022/11/26 03:02:52;;;;;;;28.70;5.20;;;6.10;99.90;;;5.04;100.00;98478.66;5071121;28;20403;-74
2022/11/26 03:05:19;;;;;;;32.13;5.82;;;6.10;99.90;;;5.04;100.00;98486.50;5072054;28;20487;-74
2022/11/26 03:07:50;;;;;;;19.15;5.25;;;6.10;99.90;;;5.05;100.00;98482.91;5072051;28;20398;-74
2022/11/26 03:10:19;;;;;;;23.98;5.28;;;6.20;99.90;;;5.07;100.00;98483.53;5072144;28;20452;-74
2022/11/26 03:12:45;;;;;;;16.73;4.90;;;6.20;99.90;;;5.10;100.00;98477.09;5071345;28;20403;-74
2022/11/26 03:15:11;;;;;;;25.55;5.57;;;6.20;99.90;;;5.11;100.00;98488.41;5071795;28;20434;-75
2022/11/26 03:17:39;;;;;;;29.27;5.55;;;6.20;99.90;;;5.11;100.00;98489.22;5071752;28;20487;-74
2022/11/26 03:20:06;;;;;;;22.27;5.10;;;6.20;99.90;;;5.10;100.00;98486.78;5071634;28;20407;-73
2022/11/26 03:22:32;;;;;;;27.42;5.30;;;6.20;99.90;;;5.10;100.00;98498.09;5071442;28;20808;-74
2022/11/26 03:24:58;;;;;;;23.08;5.38;;;6.20;99.90;;;5.09;100.00;98491.22;5070815;28;20403;-74
2022/11/26 03:27:24;;;;;;;31.00;6.33;;;6.20;99.90;;;5.14;100.00;98494.09;5053486;28;20494;-74
2022/11/26 03:29:50;;;;;;;25.60;5.75;;;6.20;99.90;;;5.08;100.00;98492.22;5071458;28;20411;-74
2022/11/26 03:32:16;;;;;;;22.92;4.90;;;6.20;99.90;;;5.05;100.00;98489.97;5071173;28;20491;-74
2022/11/26 03:34:44;;;;;;;18.13;5.07;;;6.20;99.90;;;5.07;100.00;98493.22;5070870;28;20742;-74
2022/11/26 03:37:10;;;;;;;20.02;5.10;;;6.20;99.90;;;5.02;100.00;98493.78;5071296;28;20408;-74
2022/11/26 03:39:35;;;;;;;22.42;5.15;;;6.10;99.90;;;4.98;100.00;98494.34;5071365;28;20898;-74
2022/11/26 03:42:01;;;;;;;33.83;6.50;;;6.10;99.90;;;4.93;100.00;98494.91;5071300;28;20438;-73
2022/11/26 03:44:27;;;;;;;17.47;5.50;;;6.10;99.90;;;4.87;100.00;98498.28;5070190;28;20413;-74
2022/11/26 03:46:53;;;;;;;21.98;5.38;;;6.00;99.90;;;4.80;100.00;98504.47;5071232;28;20804;-73
2022/11/26 03:49:19;;;;;;;30.75;6.88;;;5.90;99.90;;;4.76;100.00;98511.06;5071523;28;20480;-75
2022/11/26 03:51:46;;;;;;;30.60;6.87;;;5.90;99.90;;;4.66;100.00;98506.94;5070941;28;20457;-75
2022/11/26 03:54:13;;;;;;;30.10;6.60;;;5.80;99.90;;;4.61;100.00;98506.69;5069933;28;20443;-74
2022/11/26 03:56:39;;;;;;;33.85;6.43;;;5.80;99.90;;;4.57;100.00;98509.88;5071060;28;20398;-75
2022/11/26 03:59:05;;;;;;;39.93;7.83;;;5.70;99.90;;;4.55;100.00;98506.63;5070970;28;20498;-75
2022/11/26 04:01:31;;;;;;;28.38;6.65;;;5.70;99.90;;;4.47;100.00;98510.16;5070728;28;20408;-75
2022/11/26 04:03:56;;;;;;;26.58;6.95;;;5.60;99.90;;;4.45;100.00;98509.53;5051956;28;20841;-74
2022/11/26 04:06:22;;;;;;;29.30;7.50;;;5.60;99.90;;;4.48;100.00;98509.16;5070655;28;20478;-75
2022/11/26 04:08:50;;;;;;;39.13;7.40;;;5.60;99.90;;;4.48;100.00;98498.69;5070645;28;20403;-75
2022/11/26 04:11:16;;;;;;;34.65;7.20;;;5.60;99.90;;;4.51;100.00;98503.53;5070486;28;20415;-75
2022/11/26 04:13:42;;;;;;;28.58;7.10;;;5.70;99.90;;;4.54;100.00;98515.47;5069791;28;20844;-74
2022/11/26 04:16:08;;;;;;;22.35;6.70;;;5.70;99.90;;;4.52;100.00;98507.78;5070493;28;20408;-75
2022/11/26 04:18:34;;;;;;;21.52;6.32;;;5.70;99.90;;;4.51;100.00;98514.03;5070513;28;20430;-74
2022/11/26 04:21:00;;;;;;;39.10;7.83;;;5.70;99.90;;;4.49;100.00;98507.38;5070503;28;20400;-74
2022/11/26 04:23:26;;;;;;;27.83;6.95;;;5.70;99.90;;;4.47;100.00;98517.22;5069406;28;20411;-75
2022/11/26 04:25:53;;;;;;;23.80;7.40;;;5.60;99.90;;;4.43;100.00;98506.31;5070454;28;20909;-75
2022/11/26 04:28:19;;;;;;;35.47;8.32;;;5.60;99.90;;;4.42;100.00;98515.16;5070396;28;20403;-75
2022/11/26 04:30:45;;;;;;;40.33;8.77;;;5.60;99.90;;;4.43;100.00;98519.41;5070058;28;20995;-74
2022/11/26 04:33:11;;;;;;;38.33;8.88;;;5.60;99.90;;;4.44;100.00;98521.00;5069368;28;20407;-74
2022/11/26 04:35:37;;;;;;;36.13;8.90;;;5.60;99.90;;;4.43;100.00;98508.91;5052452;28;20411;-74
2022/11/26 04:38:03;;;;;;;25.30;7.07;;;5.60;99.90;;;4.40;100.00;98508.47;5070150;28;20406;-74
2022/11/26 04:40:28;;;;;;;30.85;8.35;;;5.60;99.90;;;4.37;100.00;98517.50;5070037;28;21110;-75
2022/11/26 04:42:56;;;;;;;48.03;11.52;;;5.50;99.90;;;4.38;100.00;98518.31;5067149;28;20408;-74
2022/11/26 04:45:22;;;;;;;44.17;10.27;;;5.50;99.90;;;4.31;100.00;98515.63;5096386;22;20428;-74
2022/11/26 04:47:47;;;;;;;39.23;10.77;;;5.50;99.90;;;4.27;100.00;98511.75;5090449;28;20923;-73
2022/11/26 04:50:13;;;;;;;38.65;10.73;;;5.50;99.90;;;4.21;100.00;98512.47;5090178;28;20489;-73
2022/11/26 04:52:39;;;;;;;47.92;11.45;;;5.40;99.90;;;4.15;100.00;98513.19;5089677;28;20917;-73
2022/11/26 04:55:06;;;;;;;40.90;10.27;;;5.30;99.90;;;4.05;100.00;98518.72;5089888;28;20402;-73
2022/11/26 04:57:32;;;;;;;35.10;10.55;;;5.30;99.90;;;3.99;100.00;98513.38;5090217;28;20404;-74
2022/11/26 04:59:59;;;;;;;34.33;10.43;;;5.20;99.90;;;3.93;100.00;98517.53;5090086;28;20906;-73
2022/11/26 05:02:25;;;;;;;35.95;9.85;;;5.20;99.90;;;3.84;100.00;98519.44;5089821;28;20460;-73
2022/11/26 05:04:54;;;;;;;45.80;12.50;;;5.10;99.90;;;3.82;100.00;98523.25;5085107;28;20727;-75
2022/11/26 05:07:20;;;;;;;50.80;12.07;;;5.00;99.90;;;3.75;100.00;98536.25;5080872;28;20828;-73
2022/11/26 05:09:48;;;;;;;46.22;13.50;;;4.90;99.90;;;3.68;100.00;98534.53;5062304;28;20767;-74
2022/11/26 05:12:14;;;;;;;43.35;11.38;;;4.90;99.90;;;3.57;100.00;98540.19;5078536;28;20392;-74
2022/11/26 05:14:40;;;;;;;32.63;10.40;;;4.80;99.90;;;3.50;100.00;98534.84;5078247;28;20402;-75
2022/11/26 05:17:08;;;;;;;59.00;14.57;;;4.70;99.90;;;3.48;100.00;98536.81;5079530;28;20403;-73
2022/11/26 05:19:34;;;;;;;57.90;14.47;;;4.70;99.90;;;3.42;100.00;98537.53;5061891;28;20403;-74
2022/11/26 05:22:00;;;;;;;41.20;13.38;;;4.70;99.90;;;3.37;100.00;98542.50;5079137;28;20461;-73
2022/11/26 05:24:29;;;;;;;57.58;15.57;;;4.60;99.90;;;3.33;100.00;98539.41;5077350;28;20883;-73
2022/11/26 05:26:54;;;;;;;55.75;15.10;;;4.60;99.90;;;3.27;100.00;98544.53;5078627;28;20908;-74
2022/11/26 05:29:20;;;;;;;50.77;14.93;;;4.50;99.90;;;3.23;100.00;98549.31;5078950;28;20398;-73
2022/11/26 05:31:47;;;;;;;64.22;18.20;;;4.50;99.90;;;3.26;100.00;98538.47;5080126;28;20403;-73
2022/11/26 05:34:14;;;;;;;67.43;16.50;;;4.50;99.90;;;3.22;100.00;98542.47;5079041;28;20398;-74
2022/11/26 05:36:40;;;;;;;61.33;16.17;;;4.50;99.90;;;3.21;100.00;98556.53;5079226;28;20403;-74
2022/11/26 05:39:06;;;;;;;59.47;16.65;;;4.50;99.90;;;3.23;100.00;98541.47;5078228;28;20756;-74
2022/11/26 05:41:35;;;;;;;71.17;19.20;;;4.50;99.90;;;3.28;100.00;98546.16;5079909;28;20409;-72
2022/11/26 05:44:01;;;;;;;64.60;18.17;;;4.50;99.90;;;3.30;100.00;98546.81;5077968;28;20854;-74
2022/11/26 05:46:33;;;;;;;51.78;16.77;;;4.50;99.90;;;3.27;100.00;98555.00;5078103;28;20490;-74
2022/11/26 05:48:59;;;;;;;68.13;17.95;;;4.50;99.90;;;3.24;100.00;98560.56;5078730;28;20456;-74
2022/11/26 05:51:26;;;;;;;67.50;17.58;;;4.50;99.90;;;3.19;100.00;98565.53;5078116;28;20918;-74
2022/11/26 05:53:52;;;;;;;75.25;20.40;;;4.50;99.90;;;3.22;100.00;98567.81;5060921;28;20770;-74
2022/11/26 05:56:26;;;;;;;83.77;21.10;;;4.50;99.90;;;3.12;100.00;98575.88;5078550;28;20404;-74
2022/11/26 05:58:51;;;;;;;44.83;15.35;;;4.40;99.90;;;3.08;100.00;98572.00;5078104;28;20399;-74
2022/11/26 06:01:18;;;;;;;51.80;15.87;;;4.40;99.90;;;3.05;100.00;98569.72;5079017;28;20413;-74
2022/11/26 06:03:44;;;;;;;67.80;16.00;;;4.30;99.90;;;2.99;100.00;98576.47;5078380;28;20498;-73
2022/11/26 06:06:10;;;;;;;69.43;15.77;;;4.30;99.90;;;2.94;100.00;98573.53;5077794;28;20408;-75
2022/11/26 06:08:44;;;;;;;80.95;18.60;;;4.20;99.90;;;2.90;100.00;98584.53;5079518;28;20406;-74
2022/11/26 06:11:12;;;;;;;47.60;15.30;;;4.20;99.90;;;2.85;100.00;98589.47;5079451;28;20456;-74
2022/11/26 06:13:38;;;;;;;108.80;20.70;;;4.10;99.90;;;2.80;100.00;98586.53;5077352;28;20472;-73
2022/11/26 06:16:06;;;;;;;67.05;16.42;;;4.10;99.90;;;2.73;100.00;98582.00;5080680;28;20406;-74
2022/11/26 06:18:35;;;;;;;72.55;18.65;;;4.00;99.90;;;2.72;100.00;98580.38;5077621;28;20407;-74
2022/11/26 06:21:04;;;;;;;94.63;20.10;;;4.00;99.90;;;2.66;100.00;98580.25;5077474;28;20477;-74
2022/11/26 06:23:31;;;;;;;107.47;19.77;;;4.00;99.90;;;2.61;100.00;98585.19;5060805;28;20410;-74
2022/11/26 06:25:58;;;;;;;89.03;18.47;;;3.90;99.90;;;2.57;100.00;98578.66;5078256;28;20509;-75
2022/11/26 06:28:25;;;;;;;114.78;20.98;;;3.90;99.90;;;2.53;100.00;98586.03;5078463;28;20444;-73
2022/11/26 06:30:53;;;;;;;85.72;18.75;;;3.80;99.90;;;2.48;100.00;98585.69;5083395;28;20468;-74
2022/11/26 06:33:22;;;;;;;109.32;19.13;;;3.80;99.90;;;2.45;100.00;98587.84;5080187;28;20491;-74
2022/11/26 06:35:47;;;;;;;88.38;18.08;;;3.80;99.90;;;2.42;100.00;98589.00;5080698;28;20759;-74
2022/11/26 06:38:13;;;;;;;59.10;16.48;;;3.70;99.90;;;2.41;100.00;98597.81;5080944;28;20396;-74
2022/11/26 06:40:44;;;;;;;164.35;23.23;;;3.70;99.90;;;2.37;100.00;98601.78;5081969;28;20492;-73
2022/11/26 06:43:18;;;;;;;56.87;17.90;;;3.70;99.90;;;2.37;100.00;98607.00;5081948;28;20790;-72
2022/11/26 06:45:46;;;;;;;54.38;17.02;;;3.70;99.90;;;2.36;100.00;98607.16;5082035;28;20469;-74
2022/11/26 06:48:11;;;;;;;60.28;17.70;;;3.70;99.90;;;2.36;100.00;98618.44;5080702;28;20907;-75
2022/11/26 06:50:37;;;;;;;100.57;23.20;;;3.60;99.90;;;2.36;100.00;98615.81;5082278;28;20807;-74
2022/11/26 06:53:08;;;;;;;81.40;19.53;;;3.60;99.90;;;2.23;100.00;98620.75;5081169;28;20414;-73
2022/11/26 06:55:42;;;;;;;62.30;17.60;;;3.60;99.90;;;2.20;100.00;98628.91;5080679;28;20915;-74
2022/11/26 06:58:08;;;;;;;99.50;22.00;;;3.50;99.90;;;2.25;100.00;98627.47;5080540;28;20401;-73
2022/11/26 07:00:35;;;;;;;151.67;25.00;;;3.50;99.90;;;2.20;100.00;98627.13;5078891;28;20816;-73
2022/11/26 07:03:02;;;;;;;94.10;23.77;;;3.50;99.90;;;2.30;100.00;98638.22;5078111;28;20412;-73
2022/11/26 07:05:36;;;;;;;78.45;22.13;;;3.60;99.90;;;2.21;100.00;98643.63;5081682;28;20403;-73
2022/11/26 07:08:03;;;;;;;78.10;21.80;;;3.50;99.90;;;2.23;100.00;98637.25;5079305;28;20412;-74
2022/11/26 07:10:29;;;;;;;80.97;21.25;;;3.50;99.90;;;2.16;100.00;98643.31;5081347;28;20418;-73
2022/11/26 07:12:55;;;;;;;82.80;20.90;;;3.50;99.90;;;2.17;100.00;98652.78;5082629;28;20398;-73
2022/11/26 07:15:21;;;;;;;104.55;22.90;;;3.50;99.90;;;2.20;100.00;98655.84;5080909;28;20429;-73
2022/11/26 07:17:48;;;;;;;89.15;21.77;;;3.50;99.90;;;2.16;100.00;98657.19;5083739;28;20425;-73
2022/11/26 07:20:14;;;;;;;64.45;19.55;;;3.50;99.90;;;2.17;100.00;98664.03;5085300;28;20405;-73
2022/11/26 07:22:40;;;;;;;111.65;25.65;;;3.50;99.90;;;2.26;100.00;98670.03;5079875;28;20398;-73
2022/11/26 07:25:07;;;;;;;64.10;19.48;;;3.50;99.90;;;2.18;100.00;98670.09;5079556;28;20411;-73
2022/11/26 07:27:33;;;;;;;71.47;20.13;;;3.50;99.90;;;2.18;100.00;98681.31;5081971;28;20418;-73
2022/11/26 07:29:59;;;;;;;98.33;24.33;;;3.50;99.90;;;2.23;100.00;98684.28;5081419;28;20420;-73
2022/11/26 07:32:25;;;;;;;122.97;26.05;;;3.50;99.90;;;2.30;100.00;98687.03;5079461;28;20779;-73
2022/11/26 07:34:52;;;;;;;78.28;21.92;;;3.60;99.90;;;2.25;100.00;98689.34;5075864;28;20409;-72
2022/11/26 07:37:18;;;;;;;101.90;24.25;;;3.50;99.90;;;2.21;100.00;98688.84;5088687;28;20398;-74
2022/11/26 07:39:44;;;;;;;80.18;19.80;;;3.50;99.90;;;2.18;100.00;98696.22;5076824;28;20414;-74
2022/11/26 07:42:10;;;;;;;53.93;17.47;;;3.50;99.90;;;2.20;100.00;98702.88;5081619;28;20407;-75
2022/11/26 07:44:36;;;;;;;76.43;19.80;;;3.50;99.90;;;2.24;100.00;98706.00;5080061;28;20401;-75
2022/11/26 07:47:03;;;;;;;88.07;21.42;;;3.50;99.90;;;2.32;100.00;98709.41;5081079;28;20971;-73
2022/11/26 07:49:29;;;;;;;68.47;21.25;;;3.60;99.90;;;2.42;100.00;98711.81;5081135;28;20406;-73
2022/11/26 07:51:56;;;;;;;99.03;23.85;;;3.70;99.90;;;2.53;100.00;98711.47;5081606;28;20557;-72
2022/11/26 07:54:22;;;;;;;76.32;20.42;;;3.80;99.90;;;2.66;100.00;98705.72;5083121;28;20449;-73
2022/11/26 07:56:48;;;;;;;52.75;17.38;;;3.90;99.90;;;2.80;100.00;98707.63;5079695;28;20430;-72
2022/11/26 07:59:14;;;;;;;84.43;23.95;;;4.00;99.90;;;2.93;100.00;98718.34;5088254;28;20759;-73
2022/11/26 08:01:39;;;;;;;69.97;20.20;;;4.20;99.90;;;3.00;100.00;98718.50;5081540;28;20733;-73
2022/11/26 08:04:06;;;;;;;85.70;22.17;;;4.20;99.90;;;3.06;100.00;98723.88;5090042;28;21123;-73
2022/11/26 08:06:33;;;;;;;62.42;18.83;;;4.30;99.90;;;3.13;100.00;98726.63;5091146;28;20433;-73
2022/11/26 08:09:02;;;;;;;63.42;19.17;;;4.30;99.90;;;3.19;100.00;98719.88;5091023;28;20409;-73
2022/11/26 08:11:31;;;;;;;67.10;20.52;;;4.40;99.90;;;3.24;100.00;98725.41;5087769;28;20419;-73
2022/11/26 08:14:00;;;;;;;52.83;17.87;;;4.40;99.90;;;3.30;100.00;98736.03;5069656;28;20441;-73
2022/11/26 08:16:26;;;;;;;54.10;18.17;;;4.50;99.90;;;3.37;100.00;98734.34;5070312;28;20433;-73
2022/11/26 08:18:53;;;;;;;86.22;21.95;;;4.60;99.90;;;3.43;100.00;98733.66;5070674;28;20419;-73
2022/11/26 08:21:19;;;;;;;81.57;21.07;;;4.60;99.90;;;3.47;100.00;98742.78;5070545;28;20824;-73
2022/11/26 08:23:45;;;;;;;63.45;18.20;;;4.70;99.90;;;3.52;100.00;98736.22;5051475;28;20437;-73
2022/11/26 08:26:14;;;;;;;79.77;21.73;;;4.70;99.90;;;3.53;100.00;98730.03;5070475;28;20949;-75
2022/11/26 08:28:42;;;;;;;50.33;17.70;;;4.70;99.90;;;3.57;100.00;98728.66;5077863;28;20449;-74
2022/11/26 08:31:10;;;;;;;57.80;18.35;;;4.70;99.90;;;3.60;100.00;98729.16;5081662;28;20448;-69
2022/11/26 08:33:37;;;;;;;84.57;22.52;;;4.80;99.90;;;3.60;100.00;98730.94;5082658;28;20447;-69
2022/11/26 08:36:05;;;;;;;60.85;18.80;;;4.80;99.90;;;3.57;100.00;98742.56;5080359;28;20394;-72
2022/11/26 08:38:31;;;;;;;66.25;21.30;;;4.80;99.90;;;3.56;100.00;98742.75;5090271;28;20402;-73
2022/11/26 08:40:59;;;;;;;69.90;20.23;;;4.70;99.90;;;3.54;100.00;98742.91;5072275;28;20432;-73
2022/11/26 08:43:26;;;;;;;78.53;20.98;;;4.70;99.90;;;3.54;100.00;98739.47;5089581;28;20429;-69
2022/11/26 08:45:53;;;;;;;51.92;18.17;;;4.70;99.90;;;3.55;100.00;98755.00;5090292;28;20404;-69
2022/11/26 08:48:19;;;;;;;72.77;20.73;;;4.70;99.90;;;3.56;100.00;98751.41;5090397;28;20552;-68
2022/11/26 08:50:45;;;;;;;73.30;20.48;;;4.70;99.90;;;3.58;100.00;98752.06;5089740;28;20529;-69
2022/11/26 08:53:11;;;;;;;75.55;20.88;;;4.80;99.90;;;3.64;100.00;98761.84;5076886;28;20399;-69
2022/11/26 08:55:37;;;;;;;80.43;20.70;;;4.80;99.90;;;3.72;100.00;98755.72;5069966;28;20470;-69
2022/11/26 08:58:03;;;;;;;67.75;19.65;;;4.90;99.90;;;3.90;100.00;98758.91;5069922;28;20503;-69
2022/11/26 09:00:30;;;;;;;66.03;19.43;;;5.00;99.90;;;4.09;100.00;98762.84;5069972;28;20407;-70
2022/11/26 09:02:56;;;;;;;47.58;17.00;;;5.20;99.90;;;4.34;100.00;98755.59;5052788;28;20862;-69
2022/11/26 09:05:22;;;;;;;55.97;17.17;;;5.40;99.90;;;4.52;100.00;98749.00;5089995;28;20398;-70
2022/11/26 09:07:47;;;;;;;57.15;16.83;;;5.60;99.90;;;4.67;100.00;98752.47;5071846;28;20410;-69
2022/11/26 09:10:14;;;;;;;48.90;14.82;;;5.70;99.90;;;4.82;100.00;98747.22;5090023;28;20453;-69
2022/11/26 09:12:41;;;;;;;53.33;16.75;;;5.90;99.90;;;4.91;100.00;98735.66;5089497;28;20397;-69
2022/11/26 09:15:08;;;;;;;46.90;15.82;;;6.00;99.90;;;4.96;100.00;98735.91;5089617;28;20424;-69
2022/11/26 09:17:36;;;;;;;44.80;14.30;;;6.10;99.90;;;5.01;100.00;98730.13;5090137;28;20500;-69
2022/11/26 09:20:02;;;;;;;43.70;13.85;;;6.10;99.90;;;5.01;100.00;98730.94;5089944;28;20398;-69
2022/11/26 09:22:28;;;;;;;48.22;14.07;;;6.10;99.90;;;5.02;100.00;98731.75;5089897;28;20398;-69
2022/11/26 09:24:54;;;;;;;35.67;12.20;;;6.10;99.90;;;5.13;100.00;98741.78;5089008;28;20443;-69
2022/11/26 09:27:20;;;;;;;39.42;12.25;;;6.20;99.90;;;5.38;100.00;98735.22;5089853;28;20402;-70
2022/11/26 09:29:46;;;;;;;36.08;11.90;;;6.40;99.90;;;5.67;100.00;98739.59;5071661;28;20501;-69
2022/11/26 09:32:12;;;;;;;26.33;10.03;;;6.80;99.90;;;5.94;100.00;98732.78;5089782;28;20443;-70
2022/11/26 09:34:39;;;;;;;18.67;7.88;;;7.10;99.90;;;6.24;100.00;98746.59;5070779;28;20488;-69
2022/11/26 09:37:05;;;;;;;19.00;7.18;;;7.30;99.90;;;6.50;100.00;98743.38;5089792;28;20871;-69
2022/11/26 09:39:32;;;;;;;14.85;5.70;;;7.60;99.90;;;6.67;100.00;98749.97;5089858;28;20402;-69
2022/11/26 09:42:05;;;;;;;17.53;5.60;;;7.70;99.90;;;6.88;100.00;98752.53;5079256;28;20409;-69
2022/11/26 09:44:59;;;;;;;12.70;5.00;;;7.80;99.90;;;7.29;100.00;98759.63;5079005;28;20406;-69
2022/11/26 09:47:28;;;;;;;12.10;5.05;;;8.10;99.90;;;7.80;100.00;98760.00;5055550;28;20455;-69
2022/11/26 09:50:06;;;;;;;12.07;5.00;;;8.60;99.90;;;8.37;100.00;98754.22;5053550;28;20416;-69
2022/11/26 09:52:38;;;;;;;12.05;4.95;;;9.20;99.90;;;8.81;100.00;98758.03;5081963;28;20451;-69
2022/11/26 09:55:25;;;;;;;11.07;4.47;;;9.70;99.90;;;9.36;100.00;98755.84;5064000;28;20504;-70
2022/11/26 09:58:02;;;;;;;12.35;4.20;;;10.40;99.90;;;9.83;100.00;98744.03;5085971;28;20405;-69
2022/11/26 10:00:32;;;;;;;11.07;3.92;;;10.90;99.90;;;10.34;100.00;98743.91;5073929;28;20397;-70
2022/11/26 10:02:58;;;;;;;16.95;4.35;;;11.50;99.90;;;10.86;100.00;98748.72;5080077;28;20431;-69
2022/11/26 10:05:39;;;;;;;9.77;3.30;;;12.00;99.90;;;11.41;100.00;98739.97;5076558;28;20419;-68
2022/11/26 10:08:20;;;;;;;14.23;3.95;;;12.50;99.90;;;11.87;100.00;98739.38;5080109;28;20406;-70
2022/11/26 10:10:54;;;;;;;7.80;2.92;;;13.00;99.90;;;12.35;100.00;98732.09;5087084;28;20415;-70
2022/11/26 10:13:36;;;;;;;7.93;2.92;;;13.50;99.90;;;12.81;100.00;98733.13;5082493;28;20787;-70
2022/11/26 10:16:13;;;;;;;10.88;3.30;;;14.00;99.90;;;13.14;100.00;98728.06;5089432;28;20390;-70
2022/11/26 10:18:49;;;;;;;9.35;3.42;;;14.30;99.90;;;13.39;100.00;98729.59;5061602;28;20398;-68
2022/11/26 10:21:23;;;;;;;9.80;3.27;;;14.60;99.90;;;13.15;100.00;98734.19;5092707;28;20394;-68